CheckWX is a tool to help pilots better visualize weather data.  It is not intended as a substitute for an official pre-flight weather briefing.

02:52:09 UTC

SKAR METAR
El Eden Airport
Armenia, Colombia
Current

52 mins ago

SKAR 220200Z 00000KT 9999 SCT020 20/19 A2999
Observed
May-22 @ 02:00 UTC
Visibility
10,000+ meters
Flight Rules
VFR
Cloud Levels
  • Scattered at 2,000' AGL
Temperature
20°C / 68°F
Dewpoint
19°C / 66°F
Humidity
94%
Altimeter
29.99" Hg
Pressure
1015.62 hPa
Previous

2 hours ago

SKAR 220100Z 06003KT 9999 SCT022 22/20 A2999
Observed
May-22 @ 01:00 UTC
Wind
  • 060° at 3 KTS
Visibility
10,000+ meters
Flight Rules
VFR
Cloud Levels
  • Scattered at 2,200' AGL
Temperature
22°C / 72°F
Dewpoint
20°C / 68°F
Humidity
88%
Altimeter
29.99" Hg
Pressure
1015.62 hPa
Previous

3 hours ago

SKAR 220000Z 00000KT 9999 SCT025 23/20 A2995
Observed
May-22 @ 00:00 UTC
Visibility
10,000+ meters
Flight Rules
VFR
Cloud Levels
  • Scattered at 2,500' AGL
Temperature
23°C / 73°F
Dewpoint
20°C / 68°F
Humidity
83%
Altimeter
29.95" Hg
Pressure
1014.22 hPa